Pagrindinis puslapis
METAR-TAF:

METAR-TAF

Oro uostai :

Tokumenas, Panama

platuma: 09-03N, ilguma: 079-22W, Aukštis: 45 m

Dabartinis oras

Ataskaita buvo paskelbta 28 minutes, ne 13:00 UTC
Vėjas 4 kt iš Vakarų/Šiaurės Vakarų
Temperatūra 27°C
Drėgmė 74%
Slėgis 1013 hPa
Matomumas 10 km arba daugiau
Išsisklaidę debesys ne aukštis 1800 ft

METAR: MPTO 281300Z 30004KT 9999 SCT018 27/22 Q1013 NOSIG

Laikas: 08:28 (13:28 UTC)

Prognozė

Ataskaita buvo paskelbta 2 valandos ir 28 minutes, ne 11:00 UTC
Prognozė galioja nuo 28 metu 12 UTC su 29 metu 18 UTC
Vėjas 8 kt iš Šiaurės/Šiaurės Rytų
Matomumas 10 km arba daugiau
Išsisklaidę debesys ne aukštis 1800 ft
Laikinai
nuo 28 metu 20 UTC su 28 metu 22 UTC
Vėjas 14 kt iš Šiaurės Rytų
Tapsmas
nuo 29 metu 04 UTC su 29 metu 08 UTC
Vėjas kt iš Šiaurės
Matomumas 10 km arba daugiau
nėra debesų žemiau 1500 m ir nėra kamuolinių lietaus debesų

TAF: MPTO 281100Z 2812/2918 02008KT 9999 SCT018 TEMPO 2820/2822 04014KT BECMG 2904/2908 00000KT CAVOK

Orai ataskaitas ir orų prognozės (METAR, TAF).

turimą stotys yra geltonos ir raudonos taškus žemėlapyje.

Perkelti pele per norėdami pamatyti stoties vardą.

Tada spustelėkite, norėdami matyti oro stebėjimo ir prognozės.

Norėdami pakeisti žemėlapį: spustelėkite ant žalios mygtukų su juodo kryžiaus žemyn,; žalią mygtuką su brūkšneliu, jei norite nutolinti; arba žalių rodyklių gretimoms žemėlapius.


METAR-TAF: